createdAt,value
2019-05-19T01:03:32.820Z,96338.41
2019-05-19T02:30:44.490Z,96347.17
2019-05-19T04:23:32.641Z,96371.05
2019-05-19T04:26:02.190Z,96370.16
2019-05-19T04:28:53.567Z,96369.94
2019-05-19T04:31:25.745Z,96365.91
2019-05-19T04:34:10.651Z,96367.13
2019-05-19T04:36:42.751Z,96378.36
2019-05-19T04:39:16.675Z,96366.45
2019-05-19T04:58:01.315Z,96376.11
2019-05-19T05:33:52.642Z,96386.19
2019-05-19T05:36:23.482Z,96378.24
2019-05-19T05:45:49.563Z,96358.75
2019-05-19T05:51:16.827Z,96351.73
2019-05-19T06:02:36.910Z,96362.93
2019-05-19T06:05:08.077Z,96361.63
2019-05-19T06:07:42.840Z,96369.33
2019-05-19T06:10:12.723Z,96375.94
2019-05-19T06:12:41.685Z,96372.20
2019-05-19T06:15:14.450Z,96369.40
2019-05-19T06:17:49.011Z,96379.38
2019-05-19T06:20:19.055Z,96386.81
2019-05-19T06:22:56.634Z,96383.63
2019-05-19T06:25:18.976Z,96386.00
2019-05-19T06:27:48.042Z,96385.92
2019-05-19T06:30:19.825Z,96383.89
2019-05-19T06:32:51.061Z,96384.68
2019-05-19T06:35:20.025Z,96391.98
2019-05-19T06:37:48.912Z,96380.14
2019-05-19T06:40:18.253Z,96378.48
2019-05-19T06:42:47.221Z,96377.47
2019-05-19T06:45:16.990Z,96373.09
2019-05-19T06:47:46.436Z,96380.85
2019-05-19T06:50:17.072Z,96375.08
2019-05-19T06:52:46.020Z,96379.91
2019-05-19T06:55:15.154Z,96378.84
2019-05-19T06:57:44.094Z,96380.95
2019-05-19T07:00:14.791Z,96381.34
2019-05-19T07:02:43.879Z,96378.44
2019-05-19T07:05:15.200Z,96374.55
2019-05-19T07:07:44.046Z,96379.19
2019-05-19T07:10:12.982Z,96375.72
2019-05-19T07:12:43.332Z,96371.02
2019-05-19T07:15:12.642Z,96363.69
2019-05-19T07:17:41.829Z,96359.13
2019-05-19T07:20:13.208Z,96358.68
2019-05-19T07:22:42.276Z,96359.55
2019-05-19T07:25:11.243Z,96359.13
2019-05-19T07:27:40.442Z,96365.44
2019-05-19T07:30:09.633Z,96361.39
2019-05-19T07:32:41.740Z,96358.39
2019-05-19T07:35:10.973Z,96358.63
2019-05-19T07:37:40.147Z,96352.19
2019-05-19T07:40:12.358Z,96352.86
2019-05-19T07:42:41.195Z,96357.13
2019-05-19T07:45:10.365Z,96356.21
2019-05-19T07:47:41.450Z,96345.34
2019-05-19T07:50:10.587Z,96357.32
2019-05-19T07:52:39.501Z,96348.64
2019-05-19T07:55:09.349Z,96351.98
2019-05-19T07:57:38.213Z,96357.91
2019-05-19T08:00:10.270Z,96355.81
2019-05-19T08:02:39.220Z,96354.31
2019-05-19T08:05:10.906Z,96355.00
2019-05-19T08:07:49.343Z,96355.86
2019-05-19T08:10:18.316Z,96353.28
2019-05-19T08:12:49.644Z,96349.83
2019-05-19T08:15:22.529Z,96349.00
2019-05-19T08:17:52.026Z,96352.02
2019-05-19T08:26:06.403Z,96342.36
2019-05-19T08:40:06.956Z,96336.91
2019-05-19T08:54:28.248Z,96331.25
2019-05-19T08:56:57.379Z,96330.45
2019-05-19T09:08:29.097Z,96329.40
2019-05-19T09:24:29.620Z,96323.95
2019-05-19T09:26:53.566Z,96325.38
2019-05-19T09:32:37.565Z,96315.36
2019-05-19T09:35:07.863Z,96313.07
2019-05-19T09:37:41.544Z,96312.80
2019-05-19T09:40:12.459Z,96313.23
2019-05-19T09:42:44.165Z,96310.70
2019-05-19T09:45:13.932Z,96312.02
2019-05-19T09:47:47.034Z,96306.20
2019-05-19T09:50:21.808Z,96310.72
2019-05-19T09:52:56.195Z,96305.45
2019-05-19T09:55:25.885Z,96306.20
2019-05-19T09:57:56.015Z,96298.31
2019-05-19T10:00:31.432Z,96300.38
2019-05-19T10:03:00.355Z,96303.94
2019-05-19T10:05:29.784Z,96305.41
2019-05-19T10:08:01.135Z,96301.83
2019-05-19T10:10:36.505Z,96294.64
2019-05-19T10:13:05.817Z,96295.63
2019-05-19T10:15:34.958Z,96289.80
2019-05-19T10:18:09.905Z,96285.70
2019-05-19T10:20:42.546Z,96285.31
2019-05-19T10:23:11.616Z,96285.33
2019-05-19T10:25:41.038Z,96280.84
2019-05-19T10:28:16.612Z,96279.84
2019-05-19T10:30:46.153Z,96285.27
2019-05-19T10:33:15.049Z,96281.29
2019-05-19T10:35:43.959Z,96272.52
2019-05-19T10:38:13.063Z,96269.16
2019-05-19T10:40:44.259Z,96281.86
2019-05-19T10:43:14.498Z,96279.83
2019-05-19T10:45:44.925Z,96281.77
2019-05-19T10:48:14.294Z,96279.96
2019-05-19T10:50:44.613Z,96273.86
2019-05-19T10:53:13.507Z,96275.63
2019-05-19T10:55:45.018Z,96276.63
2019-05-19T10:58:13.787Z,96275.66
2019-05-19T11:00:43.528Z,96274.28
2019-05-19T11:03:22.282Z,96278.48
2019-05-19T11:05:51.192Z,96267.77
2019-05-19T11:08:24.521Z,96270.67
2019-05-19T11:10:55.036Z,96268.49
2019-05-19T11:13:24.983Z,96256.63
2019-05-19T11:16:06.679Z,96262.42
2019-05-19T11:18:37.556Z,96269.79
2019-05-19T11:21:07.151Z,96267.58
2019-05-19T11:23:36.269Z,96257.73
2019-05-19T11:26:05.526Z,96255.97
2019-05-19T11:28:34.737Z,96252.80
2019-05-19T11:31:04.893Z,96251.77
2019-05-19T11:33:39.871Z,96250.41
2019-05-19T11:36:19.903Z,96244.04
2019-05-19T11:38:53.842Z,96249.99
2019-05-19T11:41:24.873Z,96244.75
2019-05-19T11:43:54.260Z,96245.80
2019-05-19T11:46:23.246Z,96249.09
2019-05-19T11:48:52.983Z,96242.95
2019-05-19T11:51:23.143Z,96240.37
2019-05-19T11:53:52.661Z,96236.90
2019-05-19T11:56:28.621Z,96235.03
2019-05-19T11:59:04.639Z,96235.87
2019-05-19T12:01:34.743Z,96235.36
2019-05-19T12:04:04.059Z,96229.90
2019-05-19T12:06:41.062Z,96228.48
2019-05-19T12:09:16.191Z,96220.92
2019-05-19T12:11:48.532Z,96220.03
2019-05-19T12:14:19.366Z,96223.02
2019-05-19T12:16:49.660Z,96219.88
2019-05-19T12:19:18.596Z,96213.92
2019-05-19T12:21:47.603Z,96221.97
2019-05-19T12:24:17.873Z,96213.63
2019-05-19T12:26:49.938Z,96219.17
2019-05-19T12:29:22.043Z,96221.27
2019-05-19T12:31:51.305Z,96215.86
2019-05-19T12:34:20.398Z,96212.39
2019-05-19T12:36:56.891Z,96215.97
2019-05-19T12:39:25.965Z,96216.97
2019-05-19T12:41:57.879Z,96211.50
2019-05-19T12:44:30.032Z,96207.04
2019-05-19T12:46:58.958Z,96209.12
2019-05-19T12:49:38.824Z,96197.64
2019-05-19T12:52:14.672Z,96201.66
2019-05-19T12:54:43.875Z,96196.00
2019-05-19T12:57:13.800Z,96197.41
2019-05-19T12:59:42.718Z,96194.34
2019-05-19T13:02:11.634Z,96196.33
2019-05-19T13:05:03.566Z,96193.53
2019-05-19T13:07:20.179Z,96192.50
2019-05-19T13:09:49.176Z,96184.45
2019-05-19T13:12:18.185Z,96183.52
2019-05-19T13:14:50.249Z,96178.90
2019-05-19T13:17:19.241Z,96179.85
2019-05-19T13:19:48.521Z,96184.66
2019-05-19T13:22:20.197Z,96182.77
2019-05-19T13:24:52.138Z,96173.48
2019-05-19T13:27:22.368Z,96176.72
2019-05-19T13:29:51.402Z,96166.22
2019-05-19T13:32:22.242Z,96164.72
2019-05-19T13:34:51.354Z,96154.09
2019-05-19T13:37:20.305Z,96158.80
2019-05-19T13:39:56.252Z,96159.16
2019-05-19T13:42:27.614Z,96158.34
2019-05-19T13:44:56.479Z,96155.98
2019-05-19T13:47:25.431Z,96148.12
2019-05-19T13:49:57.645Z,96144.23
2019-05-19T13:52:26.568Z,96146.59
2019-05-19T13:54:55.569Z,96140.41
2019-05-19T13:57:24.443Z,96137.33
2019-05-19T13:59:53.418Z,96131.05
2019-05-19T14:02:22.718Z,96128.44
2019-05-19T14:05:01.810Z,96120.33
2019-05-19T14:07:30.787Z,96123.53
2019-05-19T14:09:59.718Z,96120.03
2019-05-19T14:12:28.559Z,96114.47
2019-05-19T14:14:57.598Z,96112.74
2019-05-19T14:17:26.441Z,96110.58
2019-05-19T14:19:58.819Z,96114.60
2019-05-19T14:22:27.812Z,96113.50
2019-05-19T14:24:57.729Z,96100.15
2019-05-19T14:27:30.113Z,96108.52
2019-05-19T14:29:57.797Z,96101.39
2019-05-19T14:32:26.788Z,96095.77
2019-05-19T14:34:55.951Z,96103.91
2019-05-19T14:37:26.462Z,96095.77
2019-05-19T14:39:55.588Z,96089.00
2019-05-19T14:42:42.062Z,96097.68
2019-05-19T14:45:12.037Z,96088.03
2019-05-19T14:47:41.198Z,96085.53
2019-05-19T14:50:10.198Z,96086.05
2019-05-19T14:52:39.015Z,96080.91
2019-05-19T14:55:07.870Z,96079.92
2019-05-19T14:57:45.122Z,96079.28
2019-05-19T15:00:12.775Z,96081.44
2019-05-19T15:02:47.551Z,96082.06
2019-05-19T15:05:16.404Z,96079.19
2019-05-19T15:07:50.322Z,96074.05
2019-05-19T15:10:22.846Z,96070.66
2019-05-19T15:12:56.469Z,96078.04
2019-05-19T15:15:25.298Z,96075.39
2019-05-19T15:17:54.529Z,96081.34
2019-05-19T15:20:24.641Z,96078.50
2019-05-19T15:22:53.474Z,96074.22
2019-05-19T15:25:22.507Z,96072.73
2019-05-19T15:27:59.675Z,96072.55
2019-05-19T15:30:25.154Z,96078.66
2019-05-19T15:32:55.150Z,96070.44
2019-05-19T15:35:25.543Z,96071.85
2019-05-19T15:37:55.614Z,96077.73
2019-05-19T15:40:24.688Z,96069.78
2019-05-19T15:42:58.055Z,96067.30
2019-05-19T15:45:26.920Z,96065.34
2019-05-19T15:47:58.996Z,96071.80
2019-05-19T15:50:27.860Z,96072.61
2019-05-19T15:52:56.843Z,96074.78
2019-05-19T15:55:25.714Z,96076.53
2019-05-19T15:57:54.967Z,96084.84
2019-05-19T16:00:23.951Z,96080.53
2019-05-19T16:02:53.192Z,96074.91
2019-05-19T16:05:23.350Z,96075.67
2019-05-19T16:07:53.258Z,96082.27
2019-05-19T16:10:22.114Z,96086.84
2019-05-19T16:12:51.359Z,96090.34
2019-05-19T16:15:22.995Z,96096.91
2019-05-19T16:17:56.124Z,96101.02
2019-05-19T16:20:25.387Z,96109.09
2019-05-19T16:22:55.604Z,96112.08
2019-05-19T16:25:24.460Z,96114.00
2019-05-19T16:27:57.567Z,96106.30
2019-05-19T16:30:26.500Z,96098.63
2019-05-19T16:32:55.523Z,96108.99
2019-05-19T16:35:24.596Z,96104.34
2019-05-19T16:37:53.903Z,96101.85
2019-05-19T16:40:23.340Z,96105.32
2019-05-19T16:42:52.412Z,96109.39
2019-05-19T16:45:22.784Z,96114.17
2019-05-19T16:47:51.760Z,96118.14
2019-05-19T16:50:21.094Z,96123.44
2019-05-19T16:52:51.275Z,96125.80
2019-05-19T16:55:32.022Z,96127.98
2019-05-19T16:58:03.043Z,96135.61
2019-05-19T17:00:37.072Z,96138.65
2019-05-19T17:03:12.310Z,96144.05
2019-05-19T17:05:41.272Z,96141.18
2019-05-19T17:08:10.223Z,96148.52
2019-05-19T17:10:39.102Z,96147.50
2019-05-19T17:13:07.972Z,96148.61
2019-05-19T17:15:38.890Z,96145.86
2019-05-19T17:18:08.356Z,96154.87
2019-05-19T17:20:37.566Z,96151.52
2019-05-19T17:23:06.482Z,96154.36
2019-05-19T17:25:35.339Z,96157.66
2019-05-19T17:28:06.294Z,96161.64
2019-05-19T17:30:35.186Z,96157.72
2019-05-19T17:33:04.405Z,96159.77
2019-05-19T17:35:33.261Z,96157.27
2019-05-19T17:38:02.272Z,96163.27
2019-05-19T17:40:31.151Z,96160.62
2019-05-19T17:43:03.241Z,96165.25
2019-05-19T17:45:32.132Z,96163.52
2019-05-19T17:48:10.164Z,96161.45
2019-05-19T17:50:33.633Z,96163.75
2019-05-19T17:53:04.013Z,96158.75
2019-05-19T17:55:34.000Z,96163.52
2019-05-19T17:58:06.247Z,96158.48
2019-05-19T18:00:37.158Z,96167.27
2019-05-19T18:03:06.307Z,96160.95
2019-05-19T18:05:35.321Z,96162.50
2019-05-19T18:08:04.352Z,96153.53
2019-05-19T18:10:33.543Z,96156.55
2019-05-19T18:13:02.496Z,96155.81
2019-05-19T18:15:31.389Z,96156.26
2019-05-19T18:18:00.266Z,96160.63
2019-05-19T18:20:29.094Z,96154.63
2019-05-19T18:22:58.593Z,96148.34
2019-05-19T18:25:27.596Z,96154.70
2019-05-19T18:27:56.472Z,96148.40
2019-05-19T18:30:25.441Z,96151.23
2019-05-19T18:32:54.328Z,96143.99
2019-05-19T18:35:29.079Z,96150.89
2019-05-19T18:38:00.139Z,96152.78
2019-05-19T18:40:38.561Z,96152.23
2019-05-19T18:43:14.348Z,96145.03
2019-05-19T18:45:43.286Z,96148.22
2019-05-19T18:48:18.412Z,96144.66
2019-05-19T18:51:03.859Z,96146.40
2019-05-19T18:53:34.940Z,96142.66
2019-05-19T18:56:10.483Z,96133.98
2019-05-19T18:58:39.369Z,96136.51
2019-05-19T19:01:08.429Z,96129.33
2019-05-19T19:03:37.544Z,96133.25
2019-05-19T19:06:06.770Z,96135.63
2019-05-19T19:08:38.030Z,96132.69
2019-05-19T19:11:06.955Z,96131.14
2019-05-19T19:13:35.802Z,96135.22
2019-05-19T19:16:04.750Z,96136.22
2019-05-19T19:18:37.841Z,96135.56
2019-05-19T19:21:06.774Z,96145.57
2019-05-19T19:23:36.982Z,96145.95
2019-05-19T19:26:05.929Z,96150.13
2019-05-19T19:28:34.742Z,96147.05
2019-05-19T19:31:03.713Z,96151.05
2019-05-19T19:33:32.515Z,96146.96
2019-05-19T19:36:01.661Z,96153.45
2019-05-19T19:38:31.012Z,96146.50
2019-05-19T19:41:00.435Z,96144.53
2019-05-19T19:43:29.239Z,96146.88
2019-05-19T19:45:58.074Z,96147.70
2019-05-19T19:48:27.106Z,96151.37
2019-05-19T19:50:56.160Z,96157.81
2019-05-19T19:53:25.010Z,96154.02
2019-05-19T19:55:54.945Z,96159.50
2019-05-19T19:58:25.936Z,96163.00
2019-05-19T20:00:56.261Z,96171.45
2019-05-19T20:03:25.518Z,96166.50
2019-05-19T20:05:54.458Z,96172.80
2019-05-19T20:08:24.234Z,96182.53
2019-05-19T20:10:56.776Z,96182.53
2019-05-19T20:13:26.615Z,96184.67
2019-05-19T20:15:56.687Z,96178.08
2019-05-19T20:18:25.566Z,96174.12
2019-05-19T20:20:54.512Z,96173.13
2019-05-19T20:23:23.461Z,96169.86
2019-05-19T20:25:52.347Z,96169.50
2019-05-19T20:28:21.222Z,96156.97
2019-05-19T20:30:51.508Z,96164.05
2019-05-19T20:33:20.475Z,96166.66
2019-05-19T20:35:50.389Z,96160.73
2019-05-19T20:38:19.366Z,96156.27
2019-05-19T20:40:48.749Z,96153.63
2019-05-19T20:43:17.798Z,96156.56
2019-05-19T20:45:46.654Z,96158.71
2019-05-19T20:48:15.694Z,96155.91
2019-05-19T20:50:44.548Z,96162.63
2019-05-19T20:53:13.805Z,96164.74
2019-05-19T20:55:42.977Z,96165.73
2019-05-19T20:58:12.485Z,96166.72
2019-05-19T21:00:50.028Z,96165.07
2019-05-19T21:03:12.193Z,96162.06
2019-05-19T21:05:44.351Z,96162.03
2019-05-19T21:08:13.676Z,96154.80
2019-05-19T21:10:42.584Z,96162.72
2019-05-19T21:13:11.505Z,96157.44
2019-05-19T21:15:42.074Z,96162.06
2019-05-19T21:18:10.964Z,96161.73
2019-05-19T21:20:39.971Z,96165.73
2019-05-19T21:23:09.157Z,96170.55
2019-05-19T21:25:38.075Z,96172.08
2019-05-19T21:28:07.077Z,96179.06
2019-05-19T21:30:36.064Z,96191.60
2019-05-19T21:33:05.043Z,96186.00
2019-05-19T21:35:34.461Z,96190.91
2019-05-19T21:38:03.394Z,96181.52
2019-05-19T21:40:32.358Z,96177.39
2019-05-19T21:43:02.208Z,96195.53
2019-05-19T21:45:31.102Z,96193.88
2019-05-19T21:47:59.986Z,96197.19
2019-05-19T21:50:28.971Z,96190.61
2019-05-19T21:52:57.927Z,96190.97
2019-05-19T21:55:26.760Z,96186.88
2019-05-19T21:57:55.645Z,96186.84
2019-05-19T22:00:30.006Z,96180.74
2019-05-19T22:03:01.227Z,96180.08
2019-05-19T22:05:29.999Z,96173.84
2019-05-19T22:08:08.379Z,96171.70
2019-05-19T22:10:37.209Z,96176.03
2019-05-19T22:13:07.293Z,96175.58
2019-05-19T22:15:36.423Z,96172.12
2019-05-19T22:18:05.492Z,96176.55
2019-05-19T22:20:34.789Z,96182.51
2019-05-19T22:23:06.028Z,96181.84
2019-05-19T22:25:35.089Z,96187.77
2019-05-19T22:28:04.280Z,96187.14
2019-05-19T22:30:33.113Z,96187.47
2019-05-19T22:33:01.916Z,96184.50
2019-05-19T22:35:30.818Z,96174.94
2019-05-19T22:37:59.576Z,96179.41
2019-05-19T22:40:30.212Z,96184.36
2019-05-19T22:42:58.939Z,96192.77
2019-05-19T22:45:27.763Z,96195.72
2019-05-19T22:47:57.198Z,96196.73
2019-05-19T22:50:26.012Z,96198.55
2019-05-19T22:52:54.809Z,96188.18
2019-05-19T22:55:24.012Z,96193.13
2019-05-19T22:57:52.824Z,96195.41
2019-05-19T23:00:22.566Z,96197.06
2019-05-19T23:02:51.749Z,96197.72
2019-05-19T23:05:20.467Z,96195.72
2019-05-19T23:07:49.308Z,96187.13
2019-05-19T23:10:18.197Z,96192.09
2019-05-19T23:12:47.398Z,96190.45
2019-05-19T23:15:16.552Z,96197.53
2019-05-19T23:17:45.503Z,96200.00
2019-05-19T23:20:14.947Z,96195.40
2019-05-19T23:22:43.870Z,96191.45
2019-05-19T23:25:12.739Z,96195.08
2019-05-19T23:27:41.846Z,96202.16
2019-05-19T23:30:10.978Z,96198.05
2019-05-19T23:32:42.635Z,96192.11
2019-05-19T23:35:11.978Z,96189.63
2019-05-19T23:37:40.912Z,96181.87
2019-05-19T23:40:10.079Z,96179.91
2019-05-19T23:42:38.910Z,96178.23
2019-05-19T23:45:07.774Z,96180.88
2019-05-19T23:47:36.533Z,96175.93
2019-05-19T23:50:05.563Z,96177.74
2019-05-19T23:52:34.360Z,96177.58
2019-05-19T23:55:03.408Z,96175.77
2019-05-19T23:57:32.211Z,96177.91
